createdAt,value
2023-04-10T00:03:15.276Z,100734.30
2023-04-10T00:08:22.866Z,100736.43
2023-04-10T00:13:30.038Z,100734.54
2023-04-10T00:18:37.330Z,100738.01
2023-04-10T00:23:44.874Z,100735.64
2023-04-10T00:28:52.116Z,100732.86
2023-04-10T00:33:59.411Z,100729.22
2023-04-10T00:39:07.826Z,100730.27
2023-04-10T00:44:15.170Z,100732.14
2023-04-10T00:49:22.350Z,100725.45
2023-04-10T00:54:30.351Z,100728.70
2023-04-10T00:59:38.202Z,100730.89
2023-04-10T01:04:46.663Z,100734.25
2023-04-10T01:10:01.017Z,100732.34
2023-04-10T01:15:13.695Z,100729.37
2023-04-10T01:20:24.557Z,100729.39
2023-04-10T01:25:41.275Z,100728.52
2023-04-10T01:30:52.709Z,100729.91
2023-04-10T01:36:05.241Z,100729.24
2023-04-10T01:41:14.569Z,100726.48
2023-04-10T01:46:23.401Z,100738.05
2023-04-10T01:51:33.052Z,100740.20
2023-04-10T01:56:42.721Z,100743.07
2023-04-10T02:01:51.576Z,100741.40
2023-04-10T02:07:05.490Z,100743.08
2023-04-10T02:12:18.678Z,100740.39
2023-04-10T02:17:30.640Z,100737.72
2023-04-10T02:22:38.251Z,100743.26
2023-04-10T02:27:45.668Z,100747.02
2023-04-10T02:32:53.222Z,100746.95
2023-04-10T02:38:00.774Z,100744.95
2023-04-10T02:43:08.580Z,100744.00
2023-04-10T02:48:15.987Z,100749.15
2023-04-10T02:53:23.584Z,100738.45
2023-04-10T02:58:33.187Z,100751.04
2023-04-10T03:03:41.291Z,100751.47
2023-04-10T03:08:48.908Z,100753.12
2023-04-10T03:13:56.365Z,100756.32
2023-04-10T03:19:03.987Z,100757.95
2023-04-10T03:24:11.830Z,100756.45
2023-04-10T03:29:19.452Z,100756.52
2023-04-10T03:34:26.621Z,100754.84
2023-04-10T03:39:34.060Z,100756.98
2023-04-10T03:44:41.261Z,100760.02
2023-04-10T03:49:48.914Z,100759.36
2023-04-10T03:54:56.734Z,100757.17
2023-04-10T04:00:07.680Z,100764.35
2023-04-10T04:05:35.537Z,100762.81
2023-04-10T04:11:01.412Z,100766.35
2023-04-10T04:16:16.248Z,100771.96
2023-04-10T04:21:32.457Z,100778.80
2023-04-10T04:26:59.777Z,100773.92
2023-04-10T04:32:20.204Z,100775.16
2023-04-10T04:37:53.396Z,100778.30
2023-04-10T04:43:20.397Z,100783.85
2023-04-10T04:48:40.506Z,100786.77
2023-04-10T04:54:05.872Z,100790.17
2023-04-10T04:59:15.991Z,100800.52
2023-04-10T05:04:42.579Z,100808.55
2023-04-10T05:10:10.878Z,100816.02
2023-04-10T05:15:18.229Z,100819.59
2023-04-10T05:20:44.482Z,100820.61
2023-04-10T05:26:12.604Z,100827.75
2023-04-10T05:31:37.484Z,100829.19
2023-04-10T05:36:58.802Z,100828.95
2023-04-10T05:42:23.968Z,100830.75
2023-04-10T05:47:49.647Z,100833.70
2023-04-10T05:53:17.204Z,100821.90
2023-04-10T05:59:02.803Z,100828.38
2023-04-10T06:04:29.160Z,100835.02
2023-04-10T06:09:38.034Z,100840.10
2023-04-10T06:14:47.293Z,100834.94
2023-04-10T06:20:02.064Z,100838.38
2023-04-10T06:25:11.097Z,100834.14
2023-04-10T06:30:18.742Z,100836.44
2023-04-10T06:35:27.922Z,100831.30
2023-04-10T06:40:35.887Z,100836.53
2023-04-10T06:45:43.152Z,100843.52
2023-04-10T06:50:50.269Z,100849.41
2023-04-10T06:55:59.819Z,100852.41
2023-04-10T07:01:09.413Z,100849.58
2023-04-10T07:06:17.103Z,100850.09
2023-04-10T07:11:24.403Z,100844.14
2023-04-10T07:16:31.642Z,100844.21
2023-04-10T07:21:38.998Z,100842.23
2023-04-10T07:26:46.342Z,100837.25
2023-04-10T07:31:54.020Z,100837.89
2023-04-10T07:37:01.238Z,100841.70
2023-04-10T07:42:09.340Z,100842.61
2023-04-10T07:47:16.848Z,100847.54
2023-04-10T07:52:24.047Z,100842.71
2023-04-10T07:57:32.564Z,100843.50
2023-04-10T08:02:42.463Z,100845.59
2023-04-10T08:07:49.809Z,100842.39
2023-04-10T08:12:57.803Z,100837.25
2023-04-10T08:18:05.163Z,100834.39
2023-04-10T08:23:19.873Z,100828.91
2023-04-10T08:28:28.027Z,100824.65
2023-04-10T08:33:35.385Z,100820.32
2023-04-10T08:38:42.990Z,100822.44
2023-04-10T08:43:52.366Z,100815.73
2023-04-10T08:49:03.718Z,100810.70
2023-04-10T08:54:15.628Z,100806.11
2023-04-10T08:59:23.576Z,100799.05
2023-04-10T09:04:32.331Z,100800.34
2023-04-10T09:09:39.862Z,100797.89
2023-04-10T09:14:47.177Z,100793.15
2023-04-10T09:19:55.842Z,100792.27
2023-04-10T09:25:05.191Z,100790.80
2023-04-10T09:30:14.788Z,100785.86
2023-04-10T09:35:22.894Z,100776.14
2023-04-10T09:40:30.107Z,100776.64
2023-04-10T09:45:51.219Z,100769.34
2023-04-10T09:50:58.515Z,100766.30
2023-04-10T09:56:07.198Z,100757.52
2023-04-10T10:01:16.744Z,100758.49
2023-04-10T10:06:25.077Z,100757.14
2023-04-10T10:11:34.857Z,100750.24
2023-04-10T10:16:48.950Z,100745.93
2023-04-10T10:21:57.359Z,100737.55
2023-04-10T10:27:06.848Z,100730.02
2023-04-10T10:32:16.520Z,100719.73
2023-04-10T10:37:24.093Z,100717.17
2023-04-10T10:42:36.464Z,100714.95
2023-04-10T10:47:48.389Z,100707.41
2023-04-10T10:52:57.868Z,100699.67
2023-04-10T10:58:06.962Z,100696.83
2023-04-10T11:03:36.605Z,100690.90
2023-04-10T11:08:48.459Z,100678.02
2023-04-10T11:14:10.792Z,100676.84
2023-04-10T11:19:22.752Z,100675.17
2023-04-10T11:24:31.291Z,100673.42
2023-04-10T11:29:38.490Z,100670.31
2023-04-10T11:34:49.323Z,100660.67
2023-04-10T11:40:09.861Z,100660.99
2023-04-10T11:45:32.383Z,100653.89
2023-04-10T11:50:40.285Z,100650.67
2023-04-10T11:55:48.180Z,100639.86
2023-04-10T12:01:02.355Z,100636.27
2023-04-10T12:06:12.361Z,100626.40
2023-04-10T12:11:22.994Z,100628.38
2023-04-10T12:16:30.387Z,100624.45
2023-04-10T12:21:39.833Z,100623.02
2023-04-10T12:26:52.610Z,100620.95
2023-04-10T12:32:00.255Z,100612.37
2023-04-10T12:37:07.921Z,100606.27
2023-04-10T12:42:21.246Z,100603.95
2023-04-10T12:47:29.471Z,100595.76
2023-04-10T12:52:37.340Z,100588.94
2023-04-10T12:57:46.339Z,100583.77
2023-04-10T13:02:53.992Z,100582.98
2023-04-10T13:08:01.542Z,100578.95
2023-04-10T13:13:08.813Z,100570.55
2023-04-10T13:18:16.927Z,100562.84
2023-04-10T13:23:24.153Z,100554.21
2023-04-10T13:28:31.413Z,100556.23
2023-04-10T13:33:38.976Z,100550.13
2023-04-10T13:38:46.324Z,100543.61
2023-04-10T13:43:53.612Z,100545.02
2023-04-10T13:49:01.085Z,100535.56
2023-04-10T13:54:09.116Z,100532.45
2023-04-10T13:59:16.275Z,100531.73
2023-04-10T14:04:23.413Z,100526.55
2023-04-10T14:09:30.616Z,100519.77
2023-04-10T14:14:37.812Z,100515.38
2023-04-10T14:19:46.768Z,100514.00
2023-04-10T14:25:05.232Z,100512.92
2023-04-10T14:30:17.020Z,100508.36
2023-04-10T14:35:24.289Z,100503.30
2023-04-10T14:40:31.485Z,100501.50
2023-04-10T14:45:38.708Z,100498.43
2023-04-10T14:50:45.878Z,100493.87
2023-04-10T14:55:53.409Z,100489.70
2023-04-10T15:01:00.529Z,100487.59
2023-04-10T15:06:08.960Z,100482.11
2023-04-10T15:11:16.264Z,100477.48
2023-04-10T15:16:23.497Z,100470.45
2023-04-10T15:21:31.961Z,100467.17
2023-04-10T15:26:44.822Z,100460.65
2023-04-10T15:31:52.855Z,100457.52
2023-04-10T15:37:00.083Z,100450.35
2023-04-10T15:42:08.620Z,100449.92
2023-04-10T15:47:15.883Z,100447.63
2023-04-10T15:52:23.077Z,100444.70
2023-04-10T15:57:33.722Z,100441.27
2023-04-10T16:02:41.326Z,100432.95
2023-04-10T16:07:48.605Z,100433.39
2023-04-10T16:12:56.781Z,100427.98
2023-04-10T16:18:03.975Z,100422.79
2023-04-10T16:23:11.229Z,100417.67
2023-04-10T16:28:18.376Z,100413.02
2023-04-10T16:33:25.780Z,100410.83
2023-04-10T16:38:34.875Z,100409.06
2023-04-10T16:43:42.156Z,100407.17
2023-04-10T16:48:49.369Z,100403.01
2023-04-10T16:53:56.538Z,100403.04
2023-04-10T16:59:03.999Z,100402.09
2023-04-10T17:04:11.303Z,100404.20
2023-04-10T17:09:18.529Z,100401.36
2023-04-10T17:14:25.899Z,100401.06
2023-04-10T17:19:33.331Z,100399.09
2023-04-10T17:24:40.364Z,100393.68
2023-04-10T17:29:47.448Z,100399.11
2023-04-10T17:34:54.681Z,100399.11
2023-04-10T17:40:01.770Z,100397.67
2023-04-10T17:45:10.580Z,100401.63
2023-04-10T17:50:17.888Z,100401.58
2023-04-10T17:55:26.183Z,100397.67
2023-04-10T18:00:33.603Z,100397.80
2023-04-10T18:05:40.858Z,100394.42
2023-04-10T18:10:48.983Z,100385.88
2023-04-10T18:15:56.028Z,100379.78
2023-04-10T18:21:07.163Z,100382.52
2023-04-10T18:26:14.810Z,100384.32
2023-04-10T18:31:22.129Z,100381.89
2023-04-10T18:36:29.426Z,100383.66
2023-04-10T18:41:36.747Z,100386.28
2023-04-10T18:46:48.613Z,100385.69
2023-04-10T18:52:01.065Z,100384.90
2023-04-10T18:57:08.316Z,100380.05
2023-04-10T19:02:15.814Z,100376.88
2023-04-10T19:07:23.168Z,100373.71
2023-04-10T19:12:30.276Z,100368.71
2023-04-10T19:17:37.616Z,100368.64
2023-04-10T19:22:44.929Z,100364.36
2023-04-10T19:27:52.086Z,100364.55
2023-04-10T19:32:59.211Z,100361.55
2023-04-10T19:38:06.410Z,100360.98
2023-04-10T19:43:13.725Z,100356.77
2023-04-10T19:48:21.256Z,100359.30
2023-04-10T19:53:28.683Z,100359.59
2023-04-10T19:58:41.005Z,100357.16
2023-04-10T20:04:03.764Z,100353.74
2023-04-10T20:09:11.072Z,100345.89
2023-04-10T20:14:18.244Z,100337.68
2023-04-10T20:19:26.608Z,100330.89
2023-04-10T20:24:34.036Z,100332.14
2023-04-10T20:29:41.172Z,100330.02
2023-04-10T20:34:48.917Z,100324.92
2023-04-10T20:39:56.038Z,100323.19
2023-04-10T20:45:03.173Z,100322.09
2023-04-10T20:50:12.985Z,100320.98
2023-04-10T20:55:21.030Z,100314.47
2023-04-10T21:00:31.201Z,100312.41
2023-04-10T21:05:43.124Z,100303.93
2023-04-10T21:10:50.332Z,100301.90
2023-04-10T21:15:57.581Z,100295.11
2023-04-10T21:21:04.709Z,100291.24
2023-04-10T21:26:11.977Z,100291.06
2023-04-10T21:31:19.208Z,100294.19
2023-04-10T21:36:26.797Z,100292.23
2023-04-10T21:41:33.937Z,100288.51
2023-04-10T21:46:41.084Z,100279.36
2023-04-10T21:51:48.296Z,100269.21
2023-04-10T21:56:55.525Z,100262.73
2023-04-10T22:02:03.127Z,100258.19
2023-04-10T22:07:10.886Z,100251.23
2023-04-10T22:12:18.203Z,100245.10
2023-04-10T22:17:25.483Z,100236.14
2023-04-10T22:22:32.729Z,100229.98
2023-04-10T22:27:39.934Z,100220.30
2023-04-10T22:32:47.187Z,100210.39
2023-04-10T22:37:54.317Z,100211.55
2023-04-10T22:43:01.474Z,100210.27
2023-04-10T22:48:09.086Z,100205.31
2023-04-10T22:53:16.359Z,100207.00
2023-04-10T22:58:23.600Z,100202.63
2023-04-10T23:03:30.896Z,100193.33
2023-04-10T23:08:38.931Z,100188.04
2023-04-10T23:13:46.738Z,100183.11
2023-04-10T23:18:55.196Z,100183.30
2023-04-10T23:24:02.523Z,100181.50
2023-04-10T23:29:09.936Z,100178.14
2023-04-10T23:34:17.161Z,100169.53
2023-04-10T23:39:24.218Z,100160.58
2023-04-10T23:44:31.361Z,100150.38
2023-04-10T23:49:38.571Z,100141.76
2023-04-10T23:54:45.848Z,100135.19
2023-04-10T23:59:53.600Z,100134.41
